Terminal Aerodrome Forecast
Issued by NWS Pueblo, CO

Home | Current Version | Previous Version | Text Only | Print | Product List | Glossary On
Versions: 1 2 3 4 5 6 7 8 9 10 11 12 13 14 15 16 17 18 19 20 21 22 23 24 25 26 27 28 29 30 31 32 33 34 35 36 37 38 39 40 41 42 43 44 45 46 47 48 49 50
000
FTUS45 KPUB 231746
TAFPUB
TAF
KPUB 231746Z 2318/2418 11005KT P6SM FEW070 SCT120
     FM232200 13009KT P6SM SCT070 SCT100 BKN200
     FM240300 07008KT P6SM FEW080 SCT120 BKN200
     FM240600 02020G35KT P6SM SCT050 BKN100=

USA.gov is the U.S. government's official web portal to all federal, state and local government web resources and services.